Time;durP1;ratioP1;P1;durP2;ratioP2;P2;SDS_P1;SDS_P2;PMS_P1;PMS_P2;Temp;Humidity;BMP_temperature;BMP_pressure;BME280_temperature;BME280_humidity;BME280_pressure;Samples;Min_cycle;Max_cycle;Signal;HPM_P1;HPM_P2
2023/03/12 00:00:41;;;;;;;67.63;48.28;;;14.30;61.10;;;;;;5015655;27;91385;-56
2023/03/12 00:03:07;;;;;;;71.47;48.95;;;14.30;61.30;;;;;;5009443;27;91243;-57
2023/03/12 00:05:32;;;;;;;68.90;49.05;;;14.20;61.20;;;;;;5002409;27;91923;-58
2023/03/12 00:07:58;;;;;;;68.03;48.92;;;14.30;61.50;;;;;;5017872;27;89802;-56
2023/03/12 00:10:28;;;;;;;70.07;49.13;;;14.20;61.40;;;;;;5019871;27;90291;-59
2023/03/12 00:12:54;;;;;;;67.95;48.45;;;14.20;61.30;;;;;;5018914;27;89853;-59
2023/03/12 00:15:20;;;;;;;67.70;48.67;;;14.20;61.30;;;;;;5017603;27;89730;-58
2023/03/12 00:17:45;;;;;;;70.28;49.28;;;14.20;61.30;;;;;;5017555;27;90404;-57
2023/03/12 00:20:12;;;;;;;68.95;49.35;;;14.10;61.40;;;;;;5017849;27;92359;-57
2023/03/12 00:22:38;;;;;;;68.88;49.40;;;14.10;61.50;;;;;;5021105;27;91985;-56
2023/03/12 00:25:05;;;;;;;70.82;49.28;;;14.10;61.40;;;;;;5021245;27;90042;-56
2023/03/12 00:27:31;;;;;;;68.75;49.28;;;14.10;61.30;;;;;;5011262;27;90471;-55
2023/03/12 00:29:56;;;;;;;69.05;48.88;;;14.20;61.40;;;;;;5013586;27;90518;-54
2023/03/12 00:32:22;;;;;;;71.53;49.65;;;14.10;61.50;;;;;;5004053;27;89836;-49
2023/03/12 00:34:52;;;;;;;69.13;49.60;;;14.10;61.50;;;;;;5017629;27;92005;-59
2023/03/12 00:37:18;;;;;;;70.15;49.22;;;14.10;61.50;;;;;;5019027;27;89907;-58
2023/03/12 00:39:44;;;;;;;69.07;48.97;;;14.10;61.40;;;;;;5021924;27;89960;-58
2023/03/12 00:42:09;;;;;;;69.57;49.63;;;14.10;62.10;;;;;;5012355;27;90231;-57
2023/03/12 00:44:35;;;;;;;71.18;50.20;;;14.10;61.30;;;;;;5016307;27;90595;-56
2023/03/12 00:47:01;;;;;;;70.00;49.70;;;14.00;61.40;;;;;;5014286;27;91761;-54
2023/03/12 00:49:26;;;;;;;70.07;49.70;;;14.10;61.40;;;;;;5012719;27;90597;-58
2023/03/12 00:51:52;;;;;;;70.63;49.45;;;14.10;61.40;;;;;;5017682;27;95562;-58
2023/03/12 00:54:18;;;;;;;72.63;50.35;;;14.00;61.30;;;;;;5008859;27;90625;-56
2023/03/12 00:56:45;;;;;;;71.15;50.45;;;14.00;61.50;;;;;;5016130;27;89705;-58
2023/03/12 00:59:14;;;;;;;70.32;50.00;;;14.00;61.40;;;;;;5011446;27;91586;-58
2023/03/12 01:01:41;;;;;;;70.13;49.67;;;14.00;61.40;;;;;;5016934;27;89970;-59
2023/03/12 01:04:07;;;;;;;71.13;50.28;;;14.00;61.30;;;;;;5013101;27;90083;-56
2023/03/12 01:06:33;;;;;;;69.80;50.28;;;14.00;61.10;;;;;;5013965;27;89722;-59
2023/03/12 01:09:01;;;;;;;71.13;50.28;;;14.10;60.60;;;;;;5023970;27;91419;-59
2023/03/12 01:11:26;;;;;;;70.22;49.72;;;14.10;60.10;;;;;;5017810;27;91807;-59
2023/03/12 01:13:53;;;;;;;68.20;49.22;;;14.10;60.60;;;;;;5023494;27;90444;-57
2023/03/12 01:16:18;;;;;;;70.45;49.88;;;14.10;60.40;;;;;;5017925;27;90325;-59
2023/03/12 01:18:44;;;;;;;69.30;49.42;;;14.20;59.70;;;;;;5022945;27;90638;-59
2023/03/12 01:21:10;;;;;;;67.53;48.78;;;14.20;59.60;;;;;;5020414;27;91900;-56
2023/03/12 01:23:36;;;;;;;68.25;49.08;;;14.20;59.50;;;;;;5017334;27;90423;-58
2023/03/12 01:26:02;;;;;;;68.80;48.88;;;14.20;59.50;;;;;;5018174;27;89563;-58
2023/03/12 01:28:27;;;;;;;68.03;48.85;;;14.20;59.40;;;;;;5015217;27;90372;-59
2023/03/12 01:30:53;;;;;;;68.53;48.83;;;14.20;59.10;;;;;;5017014;27;91948;-58
2023/03/12 01:33:21;;;;;;;68.25;48.45;;;14.20;59.30;;;;;;5020662;27;90757;-58
2023/03/12 01:35:47;;;;;;;67.55;48.53;;;14.20;59.20;;;;;;5021388;27;92681;-59
2023/03/12 01:38:15;;;;;;;69.40;49.55;;;14.20;59.30;;;;;;5017992;27;91002;-58
2023/03/12 01:40:42;;;;;;;69.47;48.65;;;14.20;59.40;;;;;;5016405;27;91745;-59
2023/03/12 01:43:32;;;;;;;67.40;48.70;;;14.20;59.20;;;;;;5022519;27;90235;-58
2023/03/12 01:46:06;;;;;;;69.38;49.03;;;14.20;59.10;;;;;;5023972;27;90215;-59
2023/03/12 01:48:46;;;;;;;67.68;48.40;;;14.20;59.10;;;;;;5021091;27;92121;-58
2023/03/12 01:51:14;;;;;;;68.57;49.03;;;14.20;59.20;;;;;;5016908;27;91150;-58
2023/03/12 01:53:43;;;;;;;67.97;48.47;;;14.20;59.20;;;;;;5018566;27;90771;-59
2023/03/12 01:56:10;;;;;;;69.90;48.67;;;14.20;59.20;;;;;;5020621;27;90418;-58
2023/03/12 01:58:39;;;;;;;68.15;48.30;;;14.10;59.00;;;;;;5019713;27;92439;-57
2023/03/12 02:01:05;;;;;;;67.82;48.42;;;14.20;59.10;;;;;;5023516;27;91201;-59
2023/03/12 02:03:32;;;;;;;67.88;48.55;;;14.20;59.10;;;;;;5004641;27;91206;-52
2023/03/12 02:06:21;;;;;;;69.10;48.53;;;14.20;59.00;;;;;;5013324;27;89967;-59
2023/03/12 02:08:48;;;;;;;67.97;48.40;;;14.20;59.00;;;;;;5002706;28;91371;-58
2023/03/12 02:11:13;;;;;;;67.97;48.63;;;14.10;59.00;;;;;;5022779;27;90177;-58
2023/03/12 02:13:39;;;;;;;67.50;48.55;;;14.20;58.90;;;;;;5020423;27;89621;-59
2023/03/12 02:16:05;;;;;;;67.10;48.15;;;14.20;58.80;;;;;;5018071;27;89700;-60
2023/03/12 02:18:33;;;;;;;67.78;48.40;;;14.20;58.90;;;;;;5019652;27;90409;-58
2023/03/12 02:21:18;;;;;;;67.75;48.58;;;14.20;59.00;;;;;;5023289;27;91581;-55
2023/03/12 02:23:56;;;;;;;67.75;48.72;;;14.10;58.90;;;;;;5019742;27;90833;-59
2023/03/12 02:26:23;;;;;;;67.43;48.33;;;14.10;58.90;;;;;;5020590;27;89769;-59
2023/03/12 02:28:50;;;;;;;67.10;48.63;;;14.10;58.80;;;;;;5012545;27;90011;-60
2023/03/12 02:31:20;;;;;;;68.03;48.42;;;14.20;58.80;;;;;;5015585;27;90104;-58
2023/03/12 02:33:46;;;;;;;67.45;48.60;;;14.20;58.90;;;;;;5021081;27;91236;-55
2023/03/12 02:36:12;;;;;;;67.43;48.40;;;14.10;59.10;;;;;;5018236;27;90372;-57
2023/03/12 02:38:41;;;;;;;69.25;48.75;;;14.10;59.20;;;;;;5018147;27;91048;-54
2023/03/12 02:41:15;;;;;;;66.50;48.10;;;14.10;59.30;;;;;;5018271;27;90065;-58
2023/03/12 02:43:45;;;;;;;66.15;48.13;;;14.10;59.30;;;;;;5018167;27;90435;-57
2023/03/12 02:46:11;;;;;;;67.20;48.30;;;14.00;59.30;;;;;;5019817;27;91470;-59
2023/03/12 02:48:37;;;;;;;68.20;48.75;;;14.00;59.30;;;;;;5019890;27;92011;-57
2023/03/12 02:51:03;;;;;;;70.90;48.72;;;14.10;59.40;;;;;;5021940;27;91258;-58
2023/03/12 02:53:28;;;;;;;66.40;48.03;;;14.00;59.40;;;;;;5015428;27;91628;-57
2023/03/12 02:55:54;;;;;;;69.20;48.50;;;14.00;59.40;;;;;;5015219;27;90387;-58
2023/03/12 02:58:20;;;;;;;70.00;48.00;;;14.00;59.40;;;;;;5020407;27;91316;-58
2023/03/12 03:00:46;;;;;;;66.65;48.45;;;14.00;59.40;;;;;;5019135;27;91074;-57
2023/03/12 03:03:12;;;;;;;67.05;48.17;;;14.00;59.40;;;;;;5020033;27;90769;-58
2023/03/12 03:05:38;;;;;;;67.45;48.22;;;14.00;59.30;;;;;;5018752;27;89140;-58
2023/03/12 03:08:04;;;;;;;66.85;47.92;;;14.00;59.30;;;;;;5012834;27;95734;-57
2023/03/12 03:10:29;;;;;;;67.68;48.17;;;14.10;59.30;;;;;;5006284;27;90933;-57
2023/03/12 03:12:56;;;;;;;66.53;48.15;;;14.00;59.20;;;;;;5011852;27;93458;-58
2023/03/12 03:15:22;;;;;;;67.95;48.53;;;14.00;59.30;;;;;;5019492;27;89838;-60
2023/03/12 03:17:48;;;;;;;66.95;48.42;;;14.00;59.30;;;;;;5017877;27;91060;-59
2023/03/12 03:20:13;;;;;;;67.75;48.10;;;14.00;59.30;;;;;;5017197;27;91250;-58
2023/03/12 03:22:39;;;;;;;67.22;48.33;;;14.00;59.20;;;;;;5015452;27;90749;-57
2023/03/12 03:25:07;;;;;;;68.15;48.67;;;14.00;59.20;;;;;;5020700;27;89553;-58
2023/03/12 03:27:32;;;;;;;68.15;48.47;;;14.00;59.30;;;;;;5016431;27;92621;-54
2023/03/12 03:29:59;;;;;;;66.85;48.30;;;14.00;59.20;;;;;;5015266;27;90655;-54
2023/03/12 03:32:24;;;;;;;67.60;48.35;;;14.00;59.20;;;;;;5012323;27;90804;-57
2023/03/12 03:34:50;;;;;;;67.13;48.17;;;14.00;59.30;;;;;;5020057;27;90235;-59
2023/03/12 03:37:16;;;;;;;67.28;48.00;;;13.90;59.30;;;;;;5019111;27;92251;-56
2023/03/12 03:39:41;;;;;;;67.45;48.40;;;14.00;59.40;;;;;;5017867;27;91890;-58
2023/03/12 03:42:07;;;;;;;67.90;48.30;;;14.00;59.20;;;;;;5014213;27;95848;-58
2023/03/12 03:44:33;;;;;;;67.50;48.30;;;14.00;59.30;;;;;;5016744;27;90345;-57
2023/03/12 03:46:59;;;;;;;67.90;48.65;;;14.00;59.10;;;;;;5021560;27;91332;-58
2023/03/12 03:49:25;;;;;;;66.88;48.40;;;14.00;59.20;;;;;;5016338;27;92578;-56
2023/03/12 03:51:50;;;;;;;67.47;48.47;;;14.00;59.30;;;;;;5018456;27;94907;-54
2023/03/12 03:54:17;;;;;;;66.28;48.47;;;14.00;59.30;;;;;;5017348;27;89857;-57
2023/03/12 03:56:43;;;;;;;68.07;48.55;;;14.00;59.20;;;;;;5014555;27;90380;-58
2023/03/12 03:59:09;;;;;;;67.20;48.47;;;14.00;59.20;;;;;;5019925;27;90968;-58
2023/03/12 04:01:35;;;;;;;67.05;48.67;;;14.00;59.20;;;;;;5019911;27;91519;-59
2023/03/12 04:04:02;;;;;;;66.47;48.17;;;14.00;59.20;;;;;;5013902;27;93017;-57
2023/03/12 04:06:28;;;;;;;66.50;48.65;;;14.00;59.20;;;;;;5016767;27;90237;-59
2023/03/12 04:08:55;;;;;;;66.97;48.60;;;14.00;59.20;;;;;;5018159;27;91129;-58
2023/03/12 04:11:22;;;;;;;67.57;48.33;;;14.00;59.10;;;;;;5019673;27;90715;-58
2023/03/12 04:13:48;;;;;;;66.97;48.55;;;14.00;59.20;;;;;;5020669;27;90134;-58
2023/03/12 04:16:14;;;;;;;67.57;48.70;;;14.00;59.20;;;;;;5012763;27;89983;-59
2023/03/12 04:18:41;;;;;;;67.40;48.55;;;14.00;59.20;;;;;;5018659;27;91145;-58
2023/03/12 04:21:25;;;;;;;67.03;48.35;;;14.00;59.10;;;;;;5021048;27;89997;-55
2023/03/12 04:23:50;;;;;;;67.10;48.33;;;14.00;59.20;;;;;;5014590;27;90271;-49
2023/03/12 04:26:16;;;;;;;66.90;48.08;;;14.00;59.20;;;;;;5018131;27;91033;-50
2023/03/12 04:28:42;;;;;;;67.03;48.75;;;14.00;59.20;;;;;;5020234;27;94095;-49
2023/03/12 04:31:09;;;;;;;68.82;48.58;;;14.00;59.20;;;;;;5017112;27;90322;-46
2023/03/12 04:33:39;;;;;;;68.55;48.70;;;14.10;59.20;;;;;;5013970;27;89759;-49
2023/03/12 04:36:05;;;;;;;67.38;48.88;;;14.00;59.10;;;;;;5011627;27;90823;-46
2023/03/12 04:38:31;;;;;;;69.05;49.08;;;14.00;59.10;;;;;;5020604;27;92448;-46
2023/03/12 04:41:09;;;;;;;67.25;48.80;;;14.00;59.10;;;;;;5016071;27;90328;-51
2023/03/12 04:43:35;;;;;;;67.50;48.28;;;14.00;59.20;;;;;;5016220;27;89087;-45
2023/03/12 04:46:02;;;;;;;66.22;48.13;;;14.00;59.00;;;;;;5011682;27;90094;-49
2023/03/12 04:48:28;;;;;;;66.20;48.42;;;14.00;59.10;;;;;;5018311;27;90746;-46
2023/03/12 04:50:53;;;;;;;67.93;48.78;;;14.10;59.00;;;;;;5012029;27;91210;-47
2023/03/12 04:53:20;;;;;;;68.00;48.80;;;14.00;59.00;;;;;;5018069;27;89943;-46
2023/03/12 04:55:45;;;;;;;67.80;48.78;;;14.10;59.00;;;;;;5017314;27;95591;-49
2023/03/12 04:58:12;;;;;;;67.22;48.50;;;14.00;59.00;;;;;;5017524;27;93024;-46
2023/03/12 05:00:40;;;;;;;66.95;48.13;;;14.10;59.00;;;;;;5003106;27;90670;-46
2023/03/12 05:03:06;;;;;;;67.07;48.45;;;14.10;58.90;;;;;;5012600;27;91075;-47
2023/03/12 05:05:32;;;;;;;68.47;48.65;;;14.10;58.80;;;;;;4999908;27;92926;-47
2023/03/12 05:07:58;;;;;;;67.05;48.60;;;14.10;58.80;;;;;;5015320;27;89981;-47
2023/03/12 05:10:24;;;;;;;67.28;48.72;;;14.10;58.90;;;;;;5018099;27;95796;-47
2023/03/12 05:12:50;;;;;;;66.55;48.20;;;14.10;58.90;;;;;;5015503;27;91326;-45
2023/03/12 05:15:16;;;;;;;67.75;48.97;;;14.10;58.80;;;;;;5014023;27;93036;-46
2023/03/12 05:17:43;;;;;;;68.03;49.00;;;14.10;58.80;;;;;;5014096;27;92208;-47
2023/03/12 05:20:09;;;;;;;68.65;49.42;;;14.10;58.90;;;;;;5016601;27;90015;-47
2023/03/12 05:22:35;;;;;;;67.28;48.85;;;14.10;58.90;;;;;;5015592;27;90092;-47
2023/03/12 05:25:02;;;;;;;67.22;48.92;;;14.10;58.70;;;;;;5012294;27;91480;-46
2023/03/12 05:27:27;;;;;;;67.10;49.05;;;14.10;58.60;;;;;;5013010;27;91270;-46
2023/03/12 05:29:53;;;;;;;68.28;48.90;;;14.10;58.70;;;;;;5016372;27;91533;-47
2023/03/12 05:32:19;;;;;;;68.45;49.38;;;14.10;58.90;;;;;;5015354;27;90339;-47
2023/03/12 05:34:45;;;;;;;66.90;48.38;;;14.10;58.80;;;;;;5009675;27;90467;-47
2023/03/12 05:37:10;;;;;;;68.55;49.22;;;14.10;58.60;;;;;;5017282;27;90302;-47
2023/03/12 05:39:37;;;;;;;68.03;49.53;;;14.20;58.50;;;;;;5012662;27;92282;-47
2023/03/12 05:42:03;;;;;;;70.22;49.42;;;14.20;58.60;;;;;;5010610;27;90267;-47
2023/03/12 05:44:28;;;;;;;68.47;49.10;;;14.20;58.60;;;;;;5020201;27;91030;-47
2023/03/12 05:46:54;;;;;;;67.03;48.72;;;14.20;58.50;;;;;;5009532;27;90678;-49
2023/03/12 05:49:20;;;;;;;67.82;48.67;;;14.20;58.60;;;;;;5012708;27;90573;-45
2023/03/12 05:51:47;;;;;;;68.07;49.15;;;14.20;58.60;;;;;;5015330;27;91947;-46
2023/03/12 05:54:14;;;;;;;67.20;48.92;;;14.20;58.60;;;;;;5009950;27;91632;-46
2023/03/12 05:56:40;;;;;;;68.05;48.90;;;14.20;58.60;;;;;;5015997;27;89239;-47
2023/03/12 05:59:06;;;;;;;68.82;49.60;;;14.20;58.60;;;;;;5011987;27;91833;-47
2023/03/12 06:01:32;;;;;;;68.80;49.47;;;14.20;58.50;;;;;;5018206;27;91215;-46
2023/03/12 06:03:58;;;;;;;67.45;48.97;;;14.20;58.50;;;;;;5009757;27;91572;-46
2023/03/12 06:06:24;;;;;;;69.72;49.28;;;14.20;58.60;;;;;;5014247;27;93276;-45
2023/03/12 06:08:50;;;;;;;68.53;49.22;;;14.30;58.40;;;;;;5019087;27;90974;-45
2023/03/12 06:11:16;;;;;;;67.80;48.72;;;14.30;58.50;;;;;;5018611;27;95981;-48
2023/03/12 06:13:42;;;;;;;69.18;49.33;;;14.30;58.40;;;;;;5022610;27;95776;-46
2023/03/12 06:16:13;;;;;;;68.00;49.03;;;14.30;58.60;;;;;;5019246;27;89961;-46
2023/03/12 06:18:39;;;;;;;69.90;49.28;;;14.30;58.30;;;;;;5017188;27;90130;-47
2023/03/12 06:21:16;;;;;;;68.38;48.83;;;14.30;58.30;;;;;;5005582;27;89016;-47
2023/03/12 06:23:42;;;;;;;68.28;49.25;;;14.40;58.30;;;;;;5005199;27;91007;-47
2023/03/12 06:26:08;;;;;;;69.38;48.97;;;14.40;58.30;;;;;;5016539;27;90293;-47
2023/03/12 06:28:34;;;;;;;70.25;48.90;;;14.30;58.30;;;;;;5027335;27;90854;-45
2023/03/12 06:31:00;;;;;;;70.90;49.28;;;14.40;58.30;;;;;;5014681;27;90783;-47
2023/03/12 06:33:26;;;;;;;72.00;48.72;;;14.40;58.10;;;;;;5023412;27;90137;-46
2023/03/12 06:35:57;;;;;;;66.75;48.35;;;14.40;58.10;;;;;;5015656;27;90118;-47
2023/03/12 06:38:23;;;;;;;69.13;48.85;;;14.50;58.10;;;;;;5017825;27;95888;-48
2023/03/12 06:41:00;;;;;;;68.95;48.45;;;14.50;58.20;;;;;;5024750;27;90939;-46
2023/03/12 06:43:28;;;;;;;69.05;48.50;;;14.30;58.70;;;;;;5023958;27;91249;-48
2023/03/12 06:45:55;;;;;;;67.13;48.38;;;14.20;59.20;;;;;;5013429;27;90766;-47
2023/03/12 06:48:22;;;;;;;69.07;48.88;;;14.10;59.50;;;;;;5008299;27;91502;-47
2023/03/12 06:50:48;;;;;;;72.18;48.30;;;14.20;59.60;;;;;;5014621;27;89968;-47
2023/03/12 06:53:13;;;;;;;68.82;48.42;;;14.20;59.90;;;;;;5022607;27;91257;-48
2023/03/12 06:55:39;;;;;;;70.30;49.00;;;14.20;59.90;;;;;;5012852;27;89841;-46
2023/03/12 06:58:04;;;;;;;71.45;48.85;;;14.20;59.90;;;;;;5025673;27;90829;-46
2023/03/12 07:00:31;;;;;;;70.72;48.60;;;14.30;59.90;;;;;;5012533;27;90877;-51
2023/03/12 07:02:57;;;;;;;69.00;48.50;;;14.30;60.00;;;;;;5019518;27;92074;-47
2023/03/12 07:05:24;;;;;;;71.63;48.88;;;14.40;59.90;;;;;;5009781;27;90963;-48
2023/03/12 07:07:50;;;;;;;71.15;48.80;;;14.30;59.90;;;;;;5020012;27;89879;-44
2023/03/12 07:10:16;;;;;;;69.97;48.33;;;14.40;60.00;;;;;;5011572;27;89481;-46
2023/03/12 07:12:43;;;;;;;72.60;48.65;;;14.40;60.10;;;;;;5019742;27;90784;-47
2023/03/12 07:15:09;;;;;;;72.63;48.78;;;14.40;60.00;;;;;;5018777;27;90276;-49
2023/03/12 07:17:35;;;;;;;73.35;48.47;;;14.50;59.90;;;;;;5017734;27;93710;-45
2023/03/12 07:20:01;;;;;;;70.00;48.47;;;14.50;60.00;;;;;;5022281;27;91334;-47
2023/03/12 07:22:26;;;;;;;73.68;49.28;;;14.50;60.00;;;;;;5014346;27;91007;-49
2023/03/12 07:24:52;;;;;;;69.95;48.88;;;14.60;60.00;;;;;;5015508;27;90761;-45
2023/03/12 07:27:18;;;;;;;76.57;49.33;;;14.60;60.10;;;;;;5012378;27;90725;-46
2023/03/12 07:29:44;;;;;;;74.03;49.35;;;14.60;60.20;;;;;;5016900;27;90241;-46
2023/03/12 07:32:10;;;;;;;74.40;49.47;;;14.60;60.10;;;;;;5018180;27;90205;-46
2023/03/12 07:34:36;;;;;;;72.95;48.85;;;14.70;60.20;;;;;;5017729;27;91299;-47
2023/03/12 07:37:02;;;;;;;72.40;48.80;;;14.70;60.10;;;;;;5019404;27;90647;-46
2023/03/12 07:39:27;;;;;;;76.00;49.42;;;14.70;60.10;;;;;;5018321;27;91305;-46
2023/03/12 07:41:53;;;;;;;76.88;49.78;;;14.80;60.10;;;;;;5013865;27;92053;-46
2023/03/12 07:44:19;;;;;;;76.20;49.38;;;14.70;60.00;;;;;;5024582;27;91952;-46
2023/03/12 07:46:45;;;;;;;73.47;48.95;;;14.90;60.10;;;;;;5013755;27;90621;-49
2023/03/12 07:49:10;;;;;;;74.25;49.20;;;15.00;59.90;;;;;;5020436;27;90772;-46
2023/03/12 07:51:36;;;;;;;76.78;49.40;;;15.00;59.60;;;;;;5016944;27;90618;-49
2023/03/12 07:54:02;;;;;;;78.43;49.55;;;15.00;59.20;;;;;;5018053;27;90547;-45
2023/03/12 07:56:27;;;;;;;71.72;48.75;;;15.10;59.10;;;;;;5012586;27;89799;-47
2023/03/12 07:58:53;;;;;;;75.38;49.35;;;15.20;58.80;;;;;;5002751;28;89963;-45
2023/03/12 08:01:19;;;;;;;71.20;49.13;;;15.20;58.50;;;;;;5010745;27;90493;-45
2023/03/12 08:03:45;;;;;;;75.70;49.20;;;15.20;58.20;;;;;;5008923;27;95978;-45
2023/03/12 08:06:11;;;;;;;76.03;49.40;;;15.20;58.70;;;;;;5013388;27;91187;-47
2023/03/12 08:08:40;;;;;;;75.10;49.17;;;15.20;58.30;;;;;;5012210;27;90155;-46
2023/03/12 08:11:06;;;;;;;75.30;49.40;;;15.30;58.20;;;;;;5018835;27;91592;-47
2023/03/12 08:13:32;;;;;;;76.65;49.70;;;15.30;57.90;;;;;;5021099;27;91212;-45
2023/03/12 08:15:58;;;;;;;78.32;50.30;;;15.30;57.90;;;;;;5006817;27;91621;-47
2023/03/12 08:18:24;;;;;;;77.28;49.65;;;15.20;58.00;;;;;;5007656;27;92022;-47
2023/03/12 08:20:51;;;;;;;78.80;50.17;;;15.30;58.00;;;;;;5009629;27;99262;-48
2023/03/12 08:23:17;;;;;;;74.78;49.00;;;15.30;58.00;;;;;;5017203;27;89009;-47
2023/03/12 08:25:47;;;;;;;78.65;49.65;;;15.40;58.00;;;;;;5012076;27;90279;-46
2023/03/12 08:28:14;;;;;;;76.68;49.10;;;15.50;57.80;;;;;;5015236;27;91113;-46
2023/03/12 08:30:45;;;;;;;74.53;49.45;;;15.50;57.70;;;;;;5005461;27;90958;-46
2023/03/12 08:33:11;;;;;;;80.18;49.75;;;15.50;57.70;;;;;;5007221;27;92051;-48
2023/03/12 08:35:36;;;;;;;77.20;49.20;;;15.60;58.40;;;;;;5009037;27;95816;-46
2023/03/12 08:38:02;;;;;;;80.97;49.90;;;15.70;58.00;;;;;;5001954;27;91138;-46
2023/03/12 08:40:27;;;;;;;84.00;50.05;;;15.80;57.60;;;;;;5009199;27;92325;-45
2023/03/12 08:42:53;;;;;;;77.32;49.30;;;15.70;57.50;;;;;;5012420;27;90096;-45
2023/03/12 08:45:19;;;;;;;79.53;50.25;;;15.80;57.50;;;;;;5006627;27;90696;-46
2023/03/12 08:47:44;;;;;;;78.55;49.70;;;15.80;57.30;;;;;;5013235;27;90200;-46
2023/03/12 08:50:13;;;;;;;78.10;49.50;;;15.90;57.40;;;;;;5013995;27;91424;-49
2023/03/12 08:52:38;;;;;;;74.88;50.05;;;15.80;57.50;;;;;;5007829;27;92533;-45
2023/03/12 08:55:05;;;;;;;74.43;49.53;;;15.90;57.70;;;;;;5008689;27;91778;-45
2023/03/12 08:57:31;;;;;;;84.60;50.90;;;15.90;57.80;;;;;;5001519;27;90787;-48
2023/03/12 08:59:56;;;;;;;80.13;50.58;;;15.90;58.20;;;;;;5009360;27;91195;-47
2023/03/12 09:02:22;;;;;;;82.25;51.20;;;15.90;58.90;;;;;;5006210;27;90878;-47
2023/03/12 09:04:49;;;;;;;86.10;51.78;;;15.90;59.00;;;;;;5001998;27;92526;-45
2023/03/12 09:07:18;;;;;;;82.63;51.75;;;16.00;59.50;;;;;;5005260;27;90626;-48
2023/03/12 09:09:44;;;;;;;80.32;51.45;;;16.00;59.70;;;;;;5008917;27;91341;-46
2023/03/12 09:12:10;;;;;;;83.90;52.58;;;16.00;60.10;;;;;;5013975;27;90125;-47
2023/03/12 09:14:36;;;;;;;79.18;51.72;;;16.10;60.60;;;;;;5011966;27;90376;-48
2023/03/12 09:17:02;;;;;;;84.32;52.55;;;16.10;60.80;;;;;;5013101;27;94829;-45
2023/03/12 09:19:28;;;;;;;81.75;53.47;;;16.10;60.90;;;;;;5014758;27;92174;-47
2023/03/12 09:21:53;;;;;;;82.47;52.97;;;16.10;61.80;;;;;;5013773;27;96038;-48
2023/03/12 09:24:19;;;;;;;82.72;53.65;;;16.20;61.70;;;;;;5016352;27;89770;-48
2023/03/12 09:26:45;;;;;;;85.38;53.38;;;16.20;62.30;;;;;;5008349;27;90329;-48
2023/03/12 09:29:11;;;;;;;86.95;53.38;;;16.20;62.60;;;;;;5012740;27;91355;-50
2023/03/12 09:31:37;;;;;;;89.15;53.42;;;16.30;62.10;;;;;;5007286;27;91244;-47
2023/03/12 09:34:04;;;;;;;85.68;52.67;;;16.30;61.80;;;;;;5017671;27;90110;-48
2023/03/12 09:36:29;;;;;;;79.95;52.75;;;16.30;61.60;;;;;;5021068;27;90315;-46
2023/03/12 09:38:55;;;;;;;91.53;53.63;;;16.30;61.50;;;;;;5014157;27;92018;-49
2023/03/12 09:41:28;;;;;;;91.35;53.13;;;16.30;64.80;;;;;;5002744;27;96188;-49
2023/03/12 09:44:00;;;;;;;92.32;52.90;;;16.50;64.40;;;;;;5002503;27;92264;-47
2023/03/12 09:46:33;;;;;;;87.93;53.50;;;16.50;63.90;;;;;;5013410;27;90433;-46
2023/03/12 09:49:04;;;;;;;91.78;53.67;;;16.50;64.00;;;;;;5017568;27;91206;-45
2023/03/12 09:51:42;;;;;;;91.07;53.17;;;16.60;63.90;;;;;;5016145;27;90425;-44
2023/03/12 09:54:22;;;;;;;88.85;53.13;;;16.60;64.10;;;;;;5007542;27;90134;-45
2023/03/12 09:56:49;;;;;;;87.15;53.22;;;16.60;63.70;;;;;;5022487;27;89652;-46
2023/03/12 09:59:15;;;;;;;87.45;53.03;;;16.70;63.40;;;;;;5024222;27;91251;-47
2023/03/12 10:01:48;;;;;;;90.68;53.72;;;16.70;63.40;;;;;;5019452;27;90762;-47
2023/03/12 10:04:25;;;;;;;90.75;53.53;;;16.70;63.50;;;;;;5009307;27;93494;-44
2023/03/12 10:07:04;;;;;;;86.95;53.33;;;16.80;62.80;;;;;;4995432;27;93486;-44
2023/03/12 10:10:11;;;;;;;93.35;54.35;;;16.80;62.80;;;;;;5006832;27;92059;-46
2023/03/12 10:12:51;;;;;;;87.22;54.13;;;16.80;62.20;;;;;;4963793;27;92019;-45
2023/03/12 10:15:48;;;;;;;93.13;53.97;;;16.80;63.10;;;;;;5000652;27;94718;-46
2023/03/12 10:18:45;;;;;;;87.43;53.70;;;16.80;63.40;;;;;;5010946;27;92600;-45
2023/03/12 10:21:11;;;;;;;93.97;54.13;;;16.90;63.50;;;;;;5015303;27;91491;-46
2023/03/12 10:23:45;;;;;;;89.28;53.60;;;16.90;63.70;;;;;;5010801;27;91332;-46
2023/03/12 10:26:14;;;;;;;93.70;54.50;;;16.90;64.10;;;;;;5016140;27;91067;-46
2023/03/12 10:28:50;;;;;;;90.57;53.63;;;16.90;64.40;;;;;;5018147;27;89459;-48
2023/03/12 10:31:31;;;;;;;96.28;53.78;;;16.90;63.90;;;;;;5002716;27;92742;-46
2023/03/12 10:33:59;;;;;;;96.88;54.60;;;17.00;64.70;;;;;;5011392;27;92809;-47
2023/03/12 10:36:38;;;;;;;97.43;53.88;;;17.00;64.90;;;;;;5006558;27;91690;-46
2023/03/12 10:39:16;;;;;;;97.28;53.60;;;17.00;65.40;;;;;;5017109;27;91939;-46
2023/03/12 10:41:44;;;;;;;98.68;54.10;;;17.00;65.40;;;;;;4996700;27;91691;-47
2023/03/12 10:44:17;;;;;;;95.32;54.40;;;17.00;65.70;;;;;;5012390;27;93511;-46
2023/03/12 10:47:17;;;;;;;93.35;53.15;;;17.10;65.60;;;;;;5018048;27;91640;-44
2023/03/12 10:49:48;;;;;;;98.78;54.30;;;17.10;65.80;;;;;;5011610;27;90471;-44
2023/03/12 10:52:17;;;;;;;102.35;54.53;;;17.10;66.20;;;;;;5018895;27;91296;-44
2023/03/12 10:54:45;;;;;;;98.25;55.35;;;17.10;66.20;;;;;;5010913;27;93484;-46
2023/03/12 10:57:14;;;;;;;97.55;54.13;;;17.10;66.30;;;;;;5016904;27;98873;-45
2023/03/12 10:59:42;;;;;;;98.75;54.17;;;17.10;66.00;;;;;;5014541;27;89991;-48
2023/03/12 11:02:40;;;;;;;109.57;55.60;;;17.10;66.40;;;;;;5018113;27;91948;-47
2023/03/12 11:05:51;;;;;;;99.63;54.67;;;17.10;66.50;;;;;;5003955;27;95506;-46
2023/03/12 11:08:33;;;;;;;96.82;53.90;;;17.10;66.50;;;;;;4996781;27;90141;-46
2023/03/12 11:11:00;;;;;;;94.43;54.50;;;17.20;66.60;;;;;;5019990;27;90117;-46
2023/03/12 11:13:30;;;;;;;97.65;53.83;;;17.20;66.60;;;;;;5013372;27;91128;-47
2023/03/12 11:16:01;;;;;;;104.18;54.53;;;17.20;66.70;;;;;;5010166;27;91483;-46
2023/03/12 11:18:35;;;;;;;95.80;54.20;;;17.20;66.60;;;;;;5016515;27;91739;-46
2023/03/12 11:21:14;;;;;;;98.57;53.92;;;17.20;66.70;;;;;;5014976;27;95106;-48
2023/03/12 11:23:43;;;;;;;101.15;54.63;;;17.20;66.60;;;;;;5011687;27;89915;-45
2023/03/12 11:26:18;;;;;;;95.20;53.95;;;17.20;66.30;;;;;;5004143;27;90916;-46
2023/03/12 11:29:00;;;;;;;96.10;53.03;;;17.20;66.30;;;;;;5012009;27;94247;-48
2023/03/12 11:31:50;;;;;;;102.60;54.05;;;17.20;66.00;;;;;;5017038;27;90700;-44
2023/03/12 11:34:23;;;;;;;97.78;53.80;;;17.20;66.00;;;;;;5007480;27;90811;-45
2023/03/12 11:36:57;;;;;;;101.18;53.72;;;17.20;65.50;;;;;;5008158;27;91579;-48
2023/03/12 11:39:29;;;;;;;96.15;53.83;;;17.20;65.10;;;;;;5009297;27;90244;-45
2023/03/12 11:41:54;;;;;;;92.35;53.10;;;17.10;64.90;;;;;;5022404;27;89644;-44
2023/03/12 11:44:34;;;;;;;100.13;53.97;;;17.10;64.60;;;;;;5019314;27;91131;-45
2023/03/12 11:47:06;;;;;;;95.10;52.80;;;17.10;64.60;;;;;;5021473;27;90581;-47
2023/03/12 11:49:56;;;;;;;98.22;54.20;;;17.10;64.40;;;;;;5014306;27;92992;-45
2023/03/12 11:52:27;;;;;;;96.07;53.17;;;17.10;64.20;;;;;;5003856;27;92513;-47
2023/03/12 11:55:25;;;;;;;93.82;53.15;;;17.10;63.90;;;;;;5014287;27;92211;-47
2023/03/12 11:58:00;;;;;;;92.80;53.05;;;17.10;64.00;;;;;;5014131;27;91869;-45
2023/03/12 12:00:40;;;;;;;90.93;52.63;;;17.10;63.70;;;;;;5014698;27;90526;-48
2023/03/12 12:03:23;;;;;;;92.68;53.05;;;17.10;63.20;;;;;;5019299;27;89857;-45
2023/03/12 12:05:51;;;;;;;89.13;52.28;;;17.10;62.80;;;;;;4995940;27;92540;-44
2023/03/12 12:08:29;;;;;;;90.13;53.13;;;17.10;62.60;;;;;;5012348;27;90068;-49
2023/03/12 12:11:05;;;;;;;87.72;52.30;;;17.20;62.80;;;;;;5011325;27;90350;-45
2023/03/12 12:13:37;;;;;;;94.18;53.13;;;17.20;62.50;;;;;;5015898;27;89705;-48
2023/03/12 12:16:21;;;;;;;;;;;17.20;62.40;;;;;;5010916;27;91410;-46
2023/03/12 12:19:04;;;;;;;91.97;53.20;;;17.20;62.10;;;;;;5014798;27;90871;-46
2023/03/12 12:21:55;;;;;;;89.88;52.22;;;17.20;61.70;;;;;;5017227;27;91379;-45
2023/03/12 12:24:29;;;;;;;88.50;52.92;;;17.20;61.80;;;;;;5017650;27;90123;-46
2023/03/12 12:27:01;;;;;;;90.03;52.60;;;17.20;61.80;;;;;;5013702;27;91920;-48
2023/03/12 12:29:58;;;;;;;87.65;52.35;;;17.30;61.90;;;;;;5014203;27;91974;-45
2023/03/12 12:32:45;;;;;;;88.55;51.97;;;17.30;61.80;;;;;;4978076;28;90619;-45
2023/03/12 12:35:25;;;;;;;88.78;52.35;;;17.30;61.80;;;;;;5014629;27;90439;-46
2023/03/12 12:38:08;;;;;;;88.57;52.28;;;17.30;61.70;;;;;;5007350;27;91107;-46